Terminal Aerodrome Forecast
Issued by NWS Atlanta, GA

Home | Current Version | Previous Version | Text Only | Print | Product List | Glossary On
Versions: 1 2 3 4 5 6 7 8 9 10 11 12 13 14 15 16 17 18 19
512
FTUS42 KFFC 242338
TAFMCN
TAF
KMCN 242338Z 2500/2524 12005KT P6SM SCT250
     FM250800 13003KT P6SM BKN060
     FM251000 13004KT P6SM BKN018
     FM251300 14006KT P6SM BKN025
     FM251600 16009KT P6SM BKN035
     FM251900 16009KT P6SM BKN050=

USA.gov is the U.S. government's official web portal to all federal, state and local government web resources and services.